Time;durP1;ratioP1;P1;durP2;ratioP2;P2;SDS_P1;SDS_P2;PMS_P1;PMS_P2;Temp;Humidity;BMP_temperature;BMP_pressure;BME280_temperature;BME280_humidity;BME280_pressure;Samples;Min_cycle;Max_cycle;Signal;HPM_P1;HPM_P2
2023/09/15 00:02:05;;;;;;;9.27;2.80;;;;;;;19.84;86.03;101015.25;20884814;28;20053;-73
2023/09/15 00:12:28;;;;;;;4.97;2.42;;;;;;;19.74;87.46;101019.91;20878506;28;20069;-73
2023/09/15 00:22:53;;;;;;;7.32;2.65;;;;;;;19.75;90.10;101010.97;20879914;28;20056;-73
2023/09/15 00:33:15;;;;;;;4.93;2.33;;;;;;;19.89;89.15;100998.19;20861018;28;20521;-73
2023/09/15 00:43:39;;;;;;;6.88;2.60;;;;;;;20.00;88.62;101007.84;20897207;28;20074;-73
2023/09/15 00:54:02;;;;;;;6.03;2.40;;;;;;;19.74;89.30;100997.59;20871411;28;20053;-73
2023/09/15 01:04:31;;;;;;;8.05;2.58;;;;;;;19.72;88.01;100991.38;20896674;28;20090;-73
2023/09/15 01:14:53;;;;;;;8.87;2.23;;;;;;;19.65;87.73;100987.03;20912240;28;20144;-73
2023/09/15 01:25:40;;;;;;;9.30;2.53;;;;;;;19.57;87.60;100997.88;20869639;28;20300;-73
2023/09/15 01:36:05;;;;;;;7.45;2.33;;;;;;;19.45;88.38;101003.44;20883568;28;20080;-73
2023/09/15 01:46:27;;;;;;;5.03;1.90;;;;;;;19.44;87.04;101009.69;20922355;28;20099;-73
2023/09/15 01:56:53;;;;;;;10.43;1.95;;;;;;;19.35;88.50;101016.09;20871915;28;20044;-73
2023/09/15 02:07:17;;;;;;;13.45;2.53;;;;;;;19.31;89.59;101019.72;20847133;28;20473;-74
2023/09/15 02:17:42;;;;;;;7.03;2.42;;;;;;;19.25;90.99;101024.28;20898658;28;20087;-73
2023/09/15 02:28:05;;;;;;;8.35;2.15;;;;;;;19.18;91.83;101026.16;20918729;28;20349;-72
2023/09/15 02:38:29;;;;;;;9.18;2.45;;;;;;;19.25;90.93;101038.56;20886711;28;20431;-72
2023/09/15 02:48:53;;;;;;;8.60;2.72;;;;;;;19.15;91.61;101026.22;20863970;28;20055;-73
2023/09/15 02:59:19;;;;;;;6.85;2.22;;;;;;;19.10;91.88;101042.34;20855664;28;20425;-74
2023/09/15 03:09:42;;;;;;;8.55;2.25;;;;;;;19.06;92.30;101054.00;20875304;28;20049;-74
2023/09/15 03:20:13;;;;;;;7.88;2.38;;;;;;;18.92;93.04;101055.09;20916421;28;20041;-73
2023/09/15 03:30:36;;;;;;;8.18;2.30;;;;;;;18.83;92.00;101056.13;20916706;28;20044;-72
2023/09/15 03:41:02;;;;;;;6.60;2.40;;;;;;;18.76;91.37;101053.56;20885610;28;20593;-72
2023/09/15 03:51:26;;;;;;;6.82;2.53;;;;;;;18.75;90.47;101071.41;20869280;28;20173;-73
2023/09/15 04:01:50;;;;;;;7.85;2.63;;;;;;;18.63;89.81;101067.09;20900356;28;20049;-73
2023/09/15 04:12:13;;;;;;;8.10;2.35;;;;;;;18.70;90.03;101078.59;20919237;28;20115;-73
2023/09/15 04:22:38;;;;;;;8.88;2.40;;;;;;;18.89;91.62;101082.81;20872910;28;20088;-73
2023/09/15 04:33:00;;;;;;;7.72;2.63;;;;;;;19.45;94.08;101092.69;20914785;28;20140;-73
2023/09/15 04:43:25;;;;;;;8.57;2.50;;;;;;;20.03;93.02;101099.78;20884586;28;20053;-73
2023/09/15 04:53:48;;;;;;;13.63;2.63;;;;;;;20.68;94.02;101108.38;20858636;28;20510;-73
2023/09/15 05:04:13;;;;;;;9.63;2.40;;;;;;;21.33;91.90;101101.63;20867898;28;20134;-73
2023/09/15 05:14:36;;;;;;;10.00;2.53;;;;;;;22.06;94.23;101115.97;20889950;28;20044;-73
2023/09/15 05:25:04;;;;;;;14.48;3.05;;;;;;;22.92;94.67;101106.44;20876215;28;20056;-74
2023/09/15 05:35:28;;;;;;;12.82;2.58;;;;;;;23.76;91.68;101120.91;20864969;28;20143;-73
2023/09/15 05:45:53;;;;;;;10.25;2.45;;;;;;;24.76;87.54;101111.94;20875321;28;20060;-73
2023/09/15 05:56:16;;;;;;;10.77;2.58;;;;;;;25.76;81.98;101116.13;20861425;28;20059;-74
2023/09/15 06:06:40;;;;;;;8.65;2.63;;;;;;;26.63;65.73;101117.81;20858295;28;20049;-74
2023/09/15 06:17:04;;;;;;;9.77;2.00;;;;;;;27.50;57.80;101119.16;20871548;28;20389;-74
2023/09/15 06:27:29;;;;;;;17.27;2.50;;;;;;;28.34;52.54;101132.13;20886013;28;20130;-73
2023/09/15 06:37:52;;;;;;;13.23;2.60;;;;;;;29.08;48.41;101128.09;20840990;28;20057;-75
2023/09/15 06:48:16;;;;;;;10.82;2.20;;;;;;;29.69;44.08;101136.44;20858342;28;20045;-75
2023/09/15 06:58:39;;;;;;;9.20;2.20;;;;;;;30.20;43.48;101131.63;20867646;28;20091;-75
2023/09/15 07:09:04;;;;;;;12.77;2.50;;;;;;;30.61;42.85;101134.59;20905977;28;20056;-74
2023/09/15 07:19:26;;;;;;;7.88;2.42;;;;;;;31.03;41.44;101138.31;20885884;28;20056;-73
2023/09/15 07:29:51;;;;;;;10.20;2.33;;;;;;;31.26;39.51;101151.41;20875845;28;20650;-75
2023/09/15 07:40:14;;;;;;;11.35;2.92;;;;;;;31.61;38.43;101141.81;20886394;28;20060;-74
2023/09/15 07:50:38;;;;;;;11.95;2.55;;;;;;;32.18;37.41;101155.31;20899884;28;20045;-75
2023/09/15 08:01:02;;;;;;;11.13;3.00;;;;;;;32.54;35.80;101142.81;20890066;28;20055;-74
2023/09/15 08:11:26;;;;;;;8.82;2.40;;;;;;;32.76;34.52;101149.41;20928141;28;20045;-74
2023/09/15 08:21:48;;;;;;;10.57;2.37;;;;;;;33.07;34.04;101142.66;20841830;28;20060;-74
2023/09/15 08:32:17;;;;;;;7.50;2.13;;;;;;;33.28;33.79;101139.38;20896562;28;20053;-74
2023/09/15 08:42:40;;;;;;;9.30;2.38;;;;;;;33.32;32.63;101135.41;20889933;28;20439;-75
2023/09/15 08:53:05;;;;;;;10.68;2.42;;;;;;;33.28;31.19;101128.41;20895143;28;20045;-74
2023/09/15 09:03:27;;;;;;;;;;;;;;;33.64;30.96;101120.19;20840359;28;20053;-75
2023/09/15 09:13:53;;;;;;;8.98;2.28;;;;;;;34.19;29.44;101118.78;20875772;28;19921;-74
2023/09/15 09:24:15;;;;;;;7.93;2.45;;;;;;;34.28;29.31;101118.06;20835268;28;20061;-74
2023/09/15 09:34:41;;;;;;;10.98;2.58;;;;;;;34.71;29.15;101121.09;20862426;28;20452;-74
2023/09/15 09:45:04;;;;;;;8.05;2.15;;;;;;;34.90;28.96;101113.13;20858936;28;20063;-74
2023/09/15 09:55:29;;;;;;;9.43;2.30;;;;;;;34.98;26.76;101128.97;20889960;28;20140;-74
2023/09/15 10:05:52;;;;;;;10.02;2.53;;;;;;;35.18;27.58;101109.00;20900107;28;20187;-75
2023/09/15 10:16:16;;;;;;;10.95;2.50;;;;;;;35.04;26.85;101106.53;20874542;28;20059;-74
2023/09/15 10:26:41;;;;;;;14.13;2.60;;;;;;;35.14;26.81;101108.38;20888720;28;20048;-74
2023/09/15 10:37:05;;;;;;;6.38;2.20;;;;;;;35.15;26.97;101101.00;20910382;28;20102;-74
2023/09/15 10:47:28;;;;;;;11.90;2.40;;;;;;;34.59;27.25;101092.72;20890515;28;20111;-73
2023/09/15 10:57:53;;;;;;;5.97;2.05;;;;;;;34.20;27.10;101076.66;20891140;28;20052;-74
2023/09/15 11:08:16;;;;;;;12.47;2.60;;;;;;;33.78;28.71;101073.50;20860204;28;20056;-75
2023/09/15 11:18:40;;;;;;;10.55;2.33;;;;;;;33.47;29.09;101063.97;20881129;28;20140;-74
2023/09/15 11:29:02;;;;;;;12.40;2.65;;;;;;;33.25;29.70;101041.03;20895163;28;20083;-75
2023/09/15 11:39:28;;;;;;;11.48;2.63;;;;;;;33.07;29.45;101035.03;20890932;28;20073;-73
2023/09/15 11:49:51;;;;;;;9.10;2.60;;;;;;;32.93;29.28;101027.84;20884633;28;20053;-73
2023/09/15 12:00:19;;;;;;;9.15;2.40;;;;;;;32.84;30.59;101020.28;20858667;28;20038;-74
2023/09/15 12:10:43;;;;;;;16.23;3.00;;;;;;;32.80;31.03;101011.47;20876938;28;20064;-73
2023/09/15 12:21:12;;;;;;;11.23;2.83;;;;;;;32.58;32.29;101021.28;20887675;28;20572;-74
2023/09/15 12:31:41;;;;;;;10.20;2.88;;;;;;;32.32;32.06;101015.84;20872605;28;20588;-73
2023/09/15 12:42:06;;;;;;;12.55;2.80;;;;;;;32.27;31.94;101008.94;20887640;28;20059;-74
2023/09/15 12:52:28;;;;;;;10.00;2.58;;;;;;;32.29;32.42;101006.97;20875532;28;20055;-74
2023/09/15 13:02:52;;;;;;;10.20;2.58;;;;;;;31.96;31.52;100997.41;20881423;28;20049;-74
2023/09/15 13:13:15;;;;;;;13.95;3.13;;;;;;;31.87;31.62;100994.44;20880133;28;20144;-74
2023/09/15 13:23:39;;;;;;;12.35;3.15;;;;;;;31.82;32.20;100993.88;20889621;28;20070;-73
2023/09/15 13:34:02;;;;;;;13.48;2.53;;;;;;;31.71;31.73;100994.59;20890279;28;20056;-74
2023/09/15 13:44:27;;;;;;;10.55;2.60;;;;;;;31.49;31.16;100997.91;20879797;28;20049;-73
2023/09/15 13:54:49;;;;;;;11.23;2.47;;;;;;;31.32;31.85;100992.69;20880372;28;20048;-73
2023/09/15 14:05:13;;;;;;;14.27;3.10;;;;;;;31.49;32.93;100978.81;20915333;28;20060;-74
2023/09/15 14:15:36;;;;;;;8.20;2.80;;;;;;;31.45;32.20;100988.16;20874660;28;20135;-73
2023/09/15 14:26:02;;;;;;;8.57;2.70;;;;;;;31.16;32.26;100986.53;20807254;28;20041;-73
2023/09/15 14:36:24;;;;;;;10.88;2.55;;;;;;;30.82;33.19;100987.84;20878271;28;20088;-73
2023/09/15 14:46:48;;;;;;;10.18;2.75;;;;;;;30.40;34.19;100978.69;20895060;28;20045;-73
2023/09/15 14:57:11;;;;;;;12.50;3.05;;;;;;;29.94;34.21;100972.50;20907444;28;20434;-73
2023/09/15 15:07:36;;;;;;;9.77;2.60;;;;;;;29.66;34.13;100975.16;20895442;28;20056;-73
2023/09/15 15:18:00;;;;;;;11.70;2.67;;;;;;;29.36;34.50;100975.09;20899248;28;20037;-73
2023/09/15 15:28:24;;;;;;;11.20;3.08;;;;;;;29.12;35.35;100982.84;20872930;28;20049;-73
2023/09/15 15:38:47;;;;;;;11.40;3.05;;;;;;;28.87;36.52;100980.66;20897931;28;20057;-73
2023/09/15 15:49:11;;;;;;;11.65;3.00;;;;;;;28.67;37.15;100985.44;20908307;28;20056;-73
2023/09/15 15:59:33;;;;;;;14.68;4.18;;;;;;;28.43;37.38;101006.66;20900330;28;20053;-73
2023/09/15 16:09:57;;;;;;;15.98;3.95;;;;;;;28.18;37.79;100998.09;20902561;28;20210;-73
2023/09/15 16:20:20;;;;;;;15.57;3.03;;;;;;;27.90;37.11;100993.19;20904378;28;20455;-73
2023/09/15 16:30:45;;;;;;;14.98;3.17;;;;;;;27.61;36.98;100992.91;20887619;28;20059;-73
2023/09/15 16:41:07;;;;;;;11.38;2.75;;;;;;;27.37;38.24;100988.69;20922916;28;20096;-72
2023/09/15 16:51:31;;;;;;;12.35;2.83;;;;;;;27.19;39.27;100998.59;20896453;28;20049;-74
2023/09/15 17:01:54;;;;;;;13.15;2.97;;;;;;;27.00;41.24;100997.75;20900304;28;20139;-73
2023/09/15 17:12:18;;;;;;;15.13;3.40;;;;;;;26.83;41.30;101006.69;20926912;28;20146;-73
2023/09/15 17:22:41;;;;;;;19.58;7.50;;;;;;;26.67;40.81;101012.88;20875214;28;20559;-73
2023/09/15 17:33:05;;;;;;;14.65;3.47;;;;;;;26.52;41.41;101031.59;20924493;28;20064;-74
2023/09/15 17:43:28;;;;;;;14.52;3.60;;;;;;;26.33;42.31;101044.22;20922725;28;20044;-74
2023/09/15 17:53:53;;;;;;;17.08;8.18;;;;;;;26.25;42.84;101046.41;20901095;28;20060;-74
2023/09/15 18:04:16;;;;;;;18.63;4.40;;;;;;;26.09;43.47;101038.06;20889440;28;20041;-74
2023/09/15 18:14:41;;;;;;;10.88;3.65;;;;;;;25.93;43.48;101038.81;20862400;28;20080;-74
2023/09/15 18:25:04;;;;;;;15.52;3.67;;;;;;;25.73;44.51;101045.06;20899714;28;20513;-73
2023/09/15 18:35:30;;;;;;;12.40;3.53;;;;;;;25.58;45.07;101049.28;20886553;28;20049;-74
2023/09/15 18:45:54;;;;;;;12.57;4.85;;;;;;;25.49;46.56;101056.84;20917359;28;20049;-74
2023/09/15 18:56:18;;;;;;;13.15;4.45;;;;;;;25.39;47.74;101054.56;20905745;28;20432;-74
2023/09/15 19:06:41;;;;;;;12.10;3.35;;;;;;;25.37;50.24;101059.13;20891364;28;20064;-74
2023/09/15 19:17:06;;;;;;;14.68;4.03;;;;;;;25.31;52.10;101061.19;20896212;28;20053;-73
2023/09/15 19:27:29;;;;;;;16.60;4.93;;;;;;;25.30;53.72;101056.75;20882282;28;20059;-73
2023/09/15 19:37:53;;;;;;;16.20;3.97;;;;;;;25.27;54.40;101055.03;20913008;28;20135;-73
2023/09/15 19:48:15;;;;;;;15.65;3.13;;;;;;;25.15;55.47;101051.94;20926293;28;20451;-73
2023/09/15 19:58:40;;;;;;;9.20;2.72;;;;;;;25.09;55.77;101044.06;20919151;28;20041;-74
2023/09/15 20:09:03;;;;;;;14.68;3.78;;;;;;;25.02;56.22;101036.22;20933428;28;20049;-74
2023/09/15 20:19:27;;;;;;;13.82;3.30;;;;;;;25.07;56.26;101038.75;20907326;28;20052;-74
2023/09/15 20:29:50;;;;;;;14.85;3.53;;;;;;;24.99;56.35;101025.56;20894580;28;20480;-74
2023/09/15 20:40:15;;;;;;;11.48;3.15;;;;;;;24.79;57.09;101027.22;20882396;28;20044;-74
2023/09/15 20:50:37;;;;;;;13.23;3.63;;;;;;;24.65;56.65;101024.19;20895983;28;20047;-74
2023/09/15 21:01:02;;;;;;;10.90;3.40;;;;;;;24.54;56.34;101035.41;20913743;28;20103;-73
2023/09/15 21:11:25;;;;;;;15.07;3.80;;;;;;;24.43;56.00;101035.78;20876723;28;20053;-73
2023/09/15 21:21:49;;;;;;;12.57;3.50;;;;;;;24.36;54.39;101023.44;20898792;28;20052;-72
2023/09/15 21:32:12;;;;;;;12.80;3.28;;;;;;;24.31;53.23;101025.44;20895252;28;20052;-74
2023/09/15 21:42:36;;;;;;;12.48;3.30;;;;;;;24.22;52.25;101036.56;20904660;28;20619;-73
2023/09/15 21:52:58;;;;;;;15.32;3.45;;;;;;;24.32;50.63;101024.50;20930198;28;20049;-73
2023/09/15 22:03:23;;;;;;;14.60;3.72;;;;;;;24.33;50.31;101012.78;20927805;28;20051;-73
2023/09/15 22:13:46;;;;;;;11.70;3.45;;;;;;;24.23;50.71;101011.34;20905385;28;20069;-73
2023/09/15 22:24:10;;;;;;;13.40;3.95;;;;;;;24.14;50.47;101012.53;20827720;28;20056;-74
2023/09/15 22:34:33;;;;;;;15.35;3.63;;;;;;;24.06;50.32;101008.34;20890630;28;20056;-74
2023/09/15 22:44:59;;;;;;;12.32;2.78;;;;;;;23.98;49.69;101013.13;20891950;28;20048;-73
2023/09/15 22:55:23;;;;;;;16.67;3.55;;;;;;;23.91;49.42;101015.16;20888317;28;20148;-73
2023/09/15 23:05:48;;;;;;;11.70;3.30;;;;;;;24.00;48.96;101006.75;20888211;28;20060;-73
2023/09/15 23:16:11;;;;;;;13.68;3.72;;;;;;;24.06;48.45;101008.34;20881500;28;20060;-73
2023/09/15 23:26:35;;;;;;;13.95;3.17;;;;;;;24.02;48.27;100985.13;20895796;28;20052;-73
2023/09/15 23:36:58;;;;;;;16.20;3.35;;;;;;;23.95;48.15;100995.25;20892614;28;20072;-74
2023/09/15 23:47:23;;;;;;;12.20;3.60;;;;;;;23.90;47.73;101002.63;20905912;28;20508;-73
2023/09/15 23:57:45;;;;;;;9.90;3.67;;;;;;;23.97;47.58;100996.06;20912745;28;20406;-73
